sensor_id;sensor_type;location;lat;lon;timestamp;P1;durP1;ratioP1;P2;durP2;ratioP2
7783;SDS011;19359;51.402;6.778;2023-09-19T00:00:25;747.35;;;368.67;;
7783;SDS011;19359;51.402;6.778;2023-09-19T00:02:53;740.20;;;348.65;;
7783;SDS011;19359;51.402;6.778;2023-09-19T00:05:20;742.40;;;357.27;;
7783;SDS011;19359;51.402;6.778;2023-09-19T00:07:49;745.28;;;369.63;;
7783;SDS011;19359;51.402;6.778;2023-09-19T00:10:18;742.90;;;364.08;;
7783;SDS011;19359;51.402;6.778;2023-09-19T00:12:46;743.08;;;359.92;;
7783;SDS011;19359;51.402;6.778;2023-09-19T00:15:15;743.65;;;358.67;;
7783;SDS011;19359;51.402;6.778;2023-09-19T00:17:42;742.92;;;361.00;;
7783;SDS011;19359;51.402;6.778;2023-09-19T00:20:10;738.25;;;341.92;;
7783;SDS011;19359;51.402;6.778;2023-09-19T00:22:39;739.92;;;343.77;;
7783;SDS011;19359;51.402;6.778;2023-09-19T00:25:06;742.88;;;359.25;;
7783;SDS011;19359;51.402;6.778;2023-09-19T00:27:34;736.85;;;341.17;;
7783;SDS011;19359;51.402;6.778;2023-09-19T00:30:04;734.55;;;337.17;;
7783;SDS011;19359;51.402;6.778;2023-09-19T00:32:35;740.25;;;348.42;;
7783;SDS011;19359;51.402;6.778;2023-09-19T00:35:02;739.50;;;353.13;;
7783;SDS011;19359;51.402;6.778;2023-09-19T00:37:30;745.67;;;364.00;;
7783;SDS011;19359;51.402;6.778;2023-09-19T00:39:57;739.95;;;349.33;;
7783;SDS011;19359;51.402;6.778;2023-09-19T00:42:24;743.33;;;344.92;;
7783;SDS011;19359;51.402;6.778;2023-09-19T00:44:51;742.33;;;349.95;;
7783;SDS011;19359;51.402;6.778;2023-09-19T00:47:18;742.70;;;335.25;;
7783;SDS011;19359;51.402;6.778;2023-09-19T00:49:47;742.22;;;346.92;;
7783;SDS011;19359;51.402;6.778;2023-09-19T00:52:17;741.47;;;343.25;;
7783;SDS011;19359;51.402;6.778;2023-09-19T00:54:46;734.42;;;326.38;;
7783;SDS011;19359;51.402;6.778;2023-09-19T00:57:13;742.50;;;342.33;;
7783;SDS011;19359;51.402;6.778;2023-09-19T00:59:40;735.75;;;333.98;;
7783;SDS011;19359;51.402;6.778;2023-09-19T01:02:07;739.70;;;344.08;;
7783;SDS011;19359;51.402;6.778;2023-09-19T01:04:34;737.08;;;338.05;;
7783;SDS011;19359;51.402;6.778;2023-09-19T01:07:03;735.38;;;327.77;;
7783;SDS011;19359;51.402;6.778;2023-09-19T01:09:30;736.28;;;337.35;;
7783;SDS011;19359;51.402;6.778;2023-09-19T01:12:00;741.95;;;348.55;;
7783;SDS011;19359;51.402;6.778;2023-09-19T01:14:34;739.75;;;344.25;;
7783;SDS011;19359;51.402;6.778;2023-09-19T01:17:09;741.00;;;333.08;;
7783;SDS011;19359;51.402;6.778;2023-09-19T01:22:45;734.42;;;312.85;;
7783;SDS011;19359;51.402;6.778;2023-09-19T01:25:31;734.08;;;318.98;;
7783;SDS011;19359;51.402;6.778;2023-09-19T01:28:30;739.45;;;330.90;;
7783;SDS011;19359;51.402;6.778;2023-09-19T01:31:04;737.80;;;329.25;;
7783;SDS011;19359;51.402;6.778;2023-09-19T01:33:54;739.15;;;319.23;;
7783;SDS011;19359;51.402;6.778;2023-09-19T01:36:24;738.28;;;315.35;;
7783;SDS011;19359;51.402;6.778;2023-09-19T01:38:55;734.83;;;318.40;;
7783;SDS011;19359;51.402;6.778;2023-09-19T01:41:26;741.50;;;319.50;;
7783;SDS011;19359;51.402;6.778;2023-09-19T01:43:59;741.85;;;330.20;;
7783;SDS011;19359;51.402;6.778;2023-09-19T01:46:32;743.17;;;337.42;;
7783;SDS011;19359;51.402;6.778;2023-09-19T01:49:04;734.55;;;325.35;;
7783;SDS011;19359;51.402;6.778;2023-09-19T01:51:42;739.72;;;331.83;;
7783;SDS011;19359;51.402;6.778;2023-09-19T01:54:16;740.47;;;330.33;;
7783;SDS011;19359;51.402;6.778;2023-09-19T01:56:52;737.78;;;321.95;;
7783;SDS011;19359;51.402;6.778;2023-09-19T01:59:28;734.97;;;315.88;;
7783;SDS011;19359;51.402;6.778;2023-09-19T02:02:07;739.13;;;322.77;;
7783;SDS011;19359;51.402;6.778;2023-09-19T02:04:34;738.03;;;323.30;;
7783;SDS011;19359;51.402;6.778;2023-09-19T02:07:02;735.92;;;320.60;;
7783;SDS011;19359;51.402;6.778;2023-09-19T02:09:31;749.45;;;326.85;;
7783;SDS011;19359;51.402;6.778;2023-09-19T02:12:00;745.42;;;328.92;;
7783;SDS011;19359;51.402;6.778;2023-09-19T02:14:29;739.30;;;320.95;;
7783;SDS011;19359;51.402;6.778;2023-09-19T02:16:56;743.50;;;335.02;;
7783;SDS011;19359;51.402;6.778;2023-09-19T02:19:24;741.80;;;315.73;;
7783;SDS011;19359;51.402;6.778;2023-09-19T02:21:51;738.85;;;320.40;;
7783;SDS011;19359;51.402;6.778;2023-09-19T02:24:17;734.60;;;316.50;;
7783;SDS011;19359;51.402;6.778;2023-09-19T02:26:45;739.20;;;324.75;;
7783;SDS011;19359;51.402;6.778;2023-09-19T02:29:12;736.38;;;317.70;;
7783;SDS011;19359;51.402;6.778;2023-09-19T02:31:39;737.20;;;320.13;;
7783;SDS011;19359;51.402;6.778;2023-09-19T02:34:06;736.92;;;314.20;;
7783;SDS011;19359;51.402;6.778;2023-09-19T02:36:35;740.47;;;314.80;;
7783;SDS011;19359;51.402;6.778;2023-09-19T02:39:02;737.35;;;320.83;;
7783;SDS011;19359;51.402;6.778;2023-09-19T02:41:31;737.20;;;316.55;;
7783;SDS011;19359;51.402;6.778;2023-09-19T02:43:58;731.45;;;311.25;;
7783;SDS011;19359;51.402;6.778;2023-09-19T02:46:26;736.78;;;321.38;;
7783;SDS011;19359;51.402;6.778;2023-09-19T02:48:53;737.55;;;314.50;;
7783;SDS011;19359;51.402;6.778;2023-09-19T02:51:20;740.25;;;325.83;;
7783;SDS011;19359;51.402;6.778;2023-09-19T02:53:49;740.10;;;320.70;;
7783;SDS011;19359;51.402;6.778;2023-09-19T02:56:17;733.95;;;321.10;;
7783;SDS011;19359;51.402;6.778;2023-09-19T02:58:44;734.55;;;314.30;;
7783;SDS011;19359;51.402;6.778;2023-09-19T03:01:11;733.15;;;315.38;;
7783;SDS011;19359;51.402;6.778;2023-09-19T03:03:38;737.28;;;305.45;;
7783;SDS011;19359;51.402;6.778;2023-09-19T03:06:06;737.33;;;317.10;;
7783;SDS011;19359;51.402;6.778;2023-09-19T03:08:34;738.90;;;317.25;;
7783;SDS011;19359;51.402;6.778;2023-09-19T03:11:04;732.30;;;307.63;;
7783;SDS011;19359;51.402;6.778;2023-09-19T03:13:32;735.38;;;314.63;;
7783;SDS011;19359;51.402;6.778;2023-09-19T03:16:01;738.58;;;314.77;;
7783;SDS011;19359;51.402;6.778;2023-09-19T03:18:30;740.22;;;324.48;;
7783;SDS011;19359;51.402;6.778;2023-09-19T03:20:58;732.00;;;312.98;;
7783;SDS011;19359;51.402;6.778;2023-09-19T03:23:26;735.45;;;319.17;;
7783;SDS011;19359;51.402;6.778;2023-09-19T03:25:53;733.88;;;310.90;;
7783;SDS011;19359;51.402;6.778;2023-09-19T03:28:22;732.72;;;311.05;;
7783;SDS011;19359;51.402;6.778;2023-09-19T03:30:57;738.55;;;311.40;;
7783;SDS011;19359;51.402;6.778;2023-09-19T03:33:25;733.72;;;307.15;;
7783;SDS011;19359;51.402;6.778;2023-09-19T03:35:52;732.22;;;307.20;;
7783;SDS011;19359;51.402;6.778;2023-09-19T03:38:19;732.83;;;308.25;;
7783;SDS011;19359;51.402;6.778;2023-09-19T03:40:46;731.83;;;313.45;;
7783;SDS011;19359;51.402;6.778;2023-09-19T03:43:13;734.33;;;308.40;;
7783;SDS011;19359;51.402;6.778;2023-09-19T03:45:41;737.20;;;315.80;;
7783;SDS011;19359;51.402;6.778;2023-09-19T03:48:08;734.67;;;307.80;;
7783;SDS011;19359;51.402;6.778;2023-09-19T03:50:35;733.80;;;312.05;;
7783;SDS011;19359;51.402;6.778;2023-09-19T03:53:02;731.95;;;313.63;;
7783;SDS011;19359;51.402;6.778;2023-09-19T03:55:29;731.50;;;300.58;;
7783;SDS011;19359;51.402;6.778;2023-09-19T03:57:57;731.80;;;311.63;;
7783;SDS011;19359;51.402;6.778;2023-09-19T04:00:24;735.42;;;315.98;;
7783;SDS011;19359;51.402;6.778;2023-09-19T04:02:52;731.33;;;310.02;;
7783;SDS011;19359;51.402;6.778;2023-09-19T04:05:21;732.33;;;312.25;;
7783;SDS011;19359;51.402;6.778;2023-09-19T04:07:48;732.75;;;302.63;;
7783;SDS011;19359;51.402;6.778;2023-09-19T04:10:15;732.33;;;305.38;;
7783;SDS011;19359;51.402;6.778;2023-09-19T04:12:50;737.78;;;309.80;;
7783;SDS011;19359;51.402;6.778;2023-09-19T04:15:18;729.65;;;300.55;;
7783;SDS011;19359;51.402;6.778;2023-09-19T04:17:45;735.80;;;307.42;;
7783;SDS011;19359;51.402;6.778;2023-09-19T04:20:13;729.40;;;301.05;;
7783;SDS011;19359;51.402;6.778;2023-09-19T04:22:41;730.58;;;299.92;;
7783;SDS011;19359;51.402;6.778;2023-09-19T04:25:08;733.10;;;298.20;;
7783;SDS011;19359;51.402;6.778;2023-09-19T04:27:35;733.85;;;309.50;;
7783;SDS011;19359;51.402;6.778;2023-09-19T04:30:03;733.13;;;305.60;;
7783;SDS011;19359;51.402;6.778;2023-09-19T04:32:36;729.47;;;298.23;;
7783;SDS011;19359;51.402;6.778;2023-09-19T04:35:04;728.58;;;292.50;;
7783;SDS011;19359;51.402;6.778;2023-09-19T04:37:34;730.10;;;300.52;;
7783;SDS011;19359;51.402;6.778;2023-09-19T04:40:03;726.63;;;289.70;;
7783;SDS011;19359;51.402;6.778;2023-09-19T04:42:31;735.10;;;305.67;;
7783;SDS011;19359;51.402;6.778;2023-09-19T04:44:58;731.20;;;303.17;;
7783;SDS011;19359;51.402;6.778;2023-09-19T04:47:25;730.15;;;298.40;;
7783;SDS011;19359;51.402;6.778;2023-09-19T04:49:52;735.60;;;300.92;;
7783;SDS011;19359;51.402;6.778;2023-09-19T04:52:19;733.17;;;305.63;;
7783;SDS011;19359;51.402;6.778;2023-09-19T04:54:47;731.13;;;301.42;;
7783;SDS011;19359;51.402;6.778;2023-09-19T04:57:14;730.55;;;298.73;;
7783;SDS011;19359;51.402;6.778;2023-09-19T04:59:41;728.83;;;292.13;;
7783;SDS011;19359;51.402;6.778;2023-09-19T05:02:08;731.33;;;294.30;;
7783;SDS011;19359;51.402;6.778;2023-09-19T05:04:35;733.63;;;292.58;;
7783;SDS011;19359;51.402;6.778;2023-09-19T05:07:02;730.35;;;299.15;;
7783;SDS011;19359;51.402;6.778;2023-09-19T05:09:29;730.08;;;292.27;;
7783;SDS011;19359;51.402;6.778;2023-09-19T05:11:59;729.92;;;287.08;;
7783;SDS011;19359;51.402;6.778;2023-09-19T05:14:26;725.15;;;285.90;;
7783;SDS011;19359;51.402;6.778;2023-09-19T05:16:53;732.60;;;303.98;;
7783;SDS011;19359;51.402;6.778;2023-09-19T05:19:20;728.38;;;297.83;;
7783;SDS011;19359;51.402;6.778;2023-09-19T05:21:47;731.17;;;294.42;;
7783;SDS011;19359;51.402;6.778;2023-09-19T05:24:14;732.83;;;292.90;;
7783;SDS011;19359;51.402;6.778;2023-09-19T05:26:41;729.47;;;295.13;;
7783;SDS011;19359;51.402;6.778;2023-09-19T05:29:10;730.30;;;302.02;;
7783;SDS011;19359;51.402;6.778;2023-09-19T05:31:37;726.90;;;291.25;;
7783;SDS011;19359;51.402;6.778;2023-09-19T05:34:06;727.50;;;295.85;;
7783;SDS011;19359;51.402;6.778;2023-09-19T05:36:32;730.72;;;302.13;;
7783;SDS011;19359;51.402;6.778;2023-09-19T05:38:59;735.65;;;306.08;;
7783;SDS011;19359;51.402;6.778;2023-09-19T05:41:26;731.28;;;308.10;;
7783;SDS011;19359;51.402;6.778;2023-09-19T05:43:53;732.30;;;308.38;;
7783;SDS011;19359;51.402;6.778;2023-09-19T05:46:21;728.88;;;296.40;;
7783;SDS011;19359;51.402;6.778;2023-09-19T05:48:48;733.50;;;317.45;;
7783;SDS011;19359;51.402;6.778;2023-09-19T05:51:15;737.83;;;320.23;;
7783;SDS011;19359;51.402;6.778;2023-09-19T05:53:43;736.25;;;320.35;;
7783;SDS011;19359;51.402;6.778;2023-09-19T05:56:13;732.75;;;312.95;;
7783;SDS011;19359;51.402;6.778;2023-09-19T05:58:40;736.80;;;323.58;;
7783;SDS011;19359;51.402;6.778;2023-09-19T06:01:09;747.38;;;327.05;;
7783;SDS011;19359;51.402;6.778;2023-09-19T06:03:37;740.78;;;315.20;;
7783;SDS011;19359;51.402;6.778;2023-09-19T06:06:04;732.67;;;315.00;;
7783;SDS011;19359;51.402;6.778;2023-09-19T06:08:31;737.42;;;324.02;;
7783;SDS011;19359;51.402;6.778;2023-09-19T06:10:58;740.78;;;319.70;;
7783;SDS011;19359;51.402;6.778;2023-09-19T06:13:27;740.40;;;316.50;;
7783;SDS011;19359;51.402;6.778;2023-09-19T06:15:54;736.92;;;322.77;;
7783;SDS011;19359;51.402;6.778;2023-09-19T06:18:21;737.10;;;323.65;;
7783;SDS011;19359;51.402;6.778;2023-09-19T06:20:52;738.65;;;315.80;;
7783;SDS011;19359;51.402;6.778;2023-09-19T06:23:20;735.45;;;329.10;;
7783;SDS011;19359;51.402;6.778;2023-09-19T06:25:47;737.08;;;320.38;;
7783;SDS011;19359;51.402;6.778;2023-09-19T06:28:14;733.75;;;318.98;;
7783;SDS011;19359;51.402;6.778;2023-09-19T06:30:45;736.35;;;332.25;;
7783;SDS011;19359;51.402;6.778;2023-09-19T06:33:12;734.63;;;323.25;;
7783;SDS011;19359;51.402;6.778;2023-09-19T06:35:42;734.10;;;323.23;;
7783;SDS011;19359;51.402;6.778;2023-09-19T06:38:11;731.60;;;313.88;;
7783;SDS011;19359;51.402;6.778;2023-09-19T06:40:38;734.47;;;325.92;;
7783;SDS011;19359;51.402;6.778;2023-09-19T06:43:09;733.85;;;317.65;;
7783;SDS011;19359;51.402;6.778;2023-09-19T06:45:36;739.00;;;333.70;;
7783;SDS011;19359;51.402;6.778;2023-09-19T06:48:03;735.13;;;319.75;;
7783;SDS011;19359;51.402;6.778;2023-09-19T06:50:31;735.63;;;322.00;;
7783;SDS011;19359;51.402;6.778;2023-09-19T06:52:59;742.70;;;340.00;;
7783;SDS011;19359;51.402;6.778;2023-09-19T06:55:28;741.25;;;322.92;;
7783;SDS011;19359;51.402;6.778;2023-09-19T06:57:56;741.17;;;332.15;;
7783;SDS011;19359;51.402;6.778;2023-09-19T07:00:23;743.00;;;332.50;;
7783;SDS011;19359;51.402;6.778;2023-09-19T07:02:57;740.10;;;327.27;;
7783;SDS011;19359;51.402;6.778;2023-09-19T07:05:26;742.80;;;329.38;;
7783;SDS011;19359;51.402;6.778;2023-09-19T07:07:53;740.65;;;336.58;;
7783;SDS011;19359;51.402;6.778;2023-09-19T07:10:21;746.67;;;355.33;;
7783;SDS011;19359;51.402;6.778;2023-09-19T07:12:55;742.05;;;348.38;;
7783;SDS011;19359;51.402;6.778;2023-09-19T07:15:23;744.47;;;347.23;;
7783;SDS011;19359;51.402;6.778;2023-09-19T07:17:50;744.80;;;338.27;;
7783;SDS011;19359;51.402;6.778;2023-09-19T07:20:18;745.28;;;345.80;;
7783;SDS011;19359;51.402;6.778;2023-09-19T07:22:45;742.80;;;343.95;;
7783;SDS011;19359;51.402;6.778;2023-09-19T07:25:13;742.65;;;348.42;;
7783;SDS011;19359;51.402;6.778;2023-09-19T07:27:40;742.20;;;350.45;;
7783;SDS011;19359;51.402;6.778;2023-09-19T07:30:09;747.50;;;359.95;;
7783;SDS011;19359;51.402;6.778;2023-09-19T07:32:36;746.72;;;359.65;;
7783;SDS011;19359;51.402;6.778;2023-09-19T07:35:04;742.85;;;340.38;;
7783;SDS011;19359;51.402;6.778;2023-09-19T07:37:31;749.60;;;347.73;;
7783;SDS011;19359;51.402;6.778;2023-09-19T07:39:58;740.65;;;347.25;;
7783;SDS011;19359;51.402;6.778;2023-09-19T07:42:25;752.60;;;358.80;;
7783;SDS011;19359;51.402;6.778;2023-09-19T07:44:52;743.83;;;351.05;;
7783;SDS011;19359;51.402;6.778;2023-09-19T07:47:21;750.67;;;370.77;;
7783;SDS011;19359;51.402;6.778;2023-09-19T07:49:47;750.75;;;373.33;;
7783;SDS011;19359;51.402;6.778;2023-09-19T07:52:14;745.28;;;357.63;;
7783;SDS011;19359;51.402;6.778;2023-09-19T07:54:41;749.35;;;370.17;;
7783;SDS011;19359;51.402;6.778;2023-09-19T07:57:09;754.35;;;374.25;;
7783;SDS011;19359;51.402;6.778;2023-09-19T07:59:36;745.33;;;351.35;;
7783;SDS011;19359;51.402;6.778;2023-09-19T08:02:03;743.03;;;353.58;;
7783;SDS011;19359;51.402;6.778;2023-09-19T08:04:32;745.00;;;359.08;;
7783;SDS011;19359;51.402;6.778;2023-09-19T08:06:59;745.08;;;353.70;;
7783;SDS011;19359;51.402;6.778;2023-09-19T08:09:28;746.10;;;361.33;;
7783;SDS011;19359;51.402;6.778;2023-09-19T08:11:58;740.10;;;354.85;;
7783;SDS011;19359;51.402;6.778;2023-09-19T08:14:28;742.22;;;349.75;;
7783;SDS011;19359;51.402;6.778;2023-09-19T08:16:56;743.60;;;366.63;;
7783;SDS011;19359;51.402;6.778;2023-09-19T08:19:24;742.28;;;355.90;;
7783;SDS011;19359;51.402;6.778;2023-09-19T08:21:56;745.05;;;373.58;;
7783;SDS011;19359;51.402;6.778;2023-09-19T08:24:24;742.35;;;370.77;;
7783;SDS011;19359;51.402;6.778;2023-09-19T08:26:52;746.72;;;379.80;;
7783;SDS011;19359;51.402;6.778;2023-09-19T08:29:20;745.08;;;382.13;;
7783;SDS011;19359;51.402;6.778;2023-09-19T08:31:49;751.92;;;405.40;;
7783;SDS011;19359;51.402;6.778;2023-09-19T08:34:16;751.85;;;392.80;;
7783;SDS011;19359;51.402;6.778;2023-09-19T08:36:44;750.28;;;395.95;;
7783;SDS011;19359;51.402;6.778;2023-09-19T08:39:14;754.25;;;398.92;;
7783;SDS011;19359;51.402;6.778;2023-09-19T08:41:42;755.03;;;410.83;;
7783;SDS011;19359;51.402;6.778;2023-09-19T08:44:08;753.08;;;405.65;;
7783;SDS011;19359;51.402;6.778;2023-09-19T08:46:36;751.72;;;402.63;;
7783;SDS011;19359;51.402;6.778;2023-09-19T08:49:08;755.75;;;419.67;;
7783;SDS011;19359;51.402;6.778;2023-09-19T08:51:53;758.05;;;420.95;;
7783;SDS011;19359;51.402;6.778;2023-09-19T08:54:31;758.28;;;427.55;;
7783;SDS011;19359;51.402;6.778;2023-09-19T08:57:05;754.90;;;418.25;;
7783;SDS011;19359;51.402;6.778;2023-09-19T08:59:36;760.25;;;430.42;;
7783;SDS011;19359;51.402;6.778;2023-09-19T09:02:07;759.97;;;425.83;;
7783;SDS011;19359;51.402;6.778;2023-09-19T09:04:38;757.67;;;426.42;;
7783;SDS011;19359;51.402;6.778;2023-09-19T09:07:06;755.97;;;423.27;;
7783;SDS011;19359;51.402;6.778;2023-09-19T09:09:39;760.90;;;437.80;;
7783;SDS011;19359;51.402;6.778;2023-09-19T09:12:08;759.92;;;425.67;;
7783;SDS011;19359;51.402;6.778;2023-09-19T09:14:38;758.13;;;420.52;;
7783;SDS011;19359;51.402;6.778;2023-09-19T09:17:05;761.88;;;435.75;;
7783;SDS011;19359;51.402;6.778;2023-09-19T09:19:32;758.47;;;427.98;;
7783;SDS011;19359;51.402;6.778;2023-09-19T09:22:05;758.28;;;424.48;;
7783;SDS011;19359;51.402;6.778;2023-09-19T09:24:33;761.95;;;438.25;;
7783;SDS011;19359;51.402;6.778;2023-09-19T09:27:04;759.30;;;438.52;;
7783;SDS011;19359;51.402;6.778;2023-09-19T09:29:41;754.88;;;423.52;;
7783;SDS011;19359;51.402;6.778;2023-09-19T09:32:21;757.53;;;428.30;;
7783;SDS011;19359;51.402;6.778;2023-09-19T09:34:50;763.17;;;429.60;;
7783;SDS011;19359;51.402;6.778;2023-09-19T09:37:18;757.30;;;435.25;;
7783;SDS011;19359;51.402;6.778;2023-09-19T09:39:49;757.85;;;433.80;;
7783;SDS011;19359;51.402;6.778;2023-09-19T09:45:14;758.42;;;437.48;;
7783;SDS011;19359;51.402;6.778;2023-09-19T09:47:42;756.10;;;424.20;;
7783;SDS011;19359;51.402;6.778;2023-09-19T09:50:28;758.92;;;426.95;;
7783;SDS011;19359;51.402;6.778;2023-09-19T09:53:22;754.67;;;425.02;;
7783;SDS011;19359;51.402;6.778;2023-09-19T09:55:59;758.95;;;448.30;;
7783;SDS011;19359;51.402;6.778;2023-09-19T09:58:29;758.05;;;427.13;;
7783;SDS011;19359;51.402;6.778;2023-09-19T10:00:56;765.00;;;424.23;;
7783;SDS011;19359;51.402;6.778;2023-09-19T10:03:32;758.95;;;417.70;;
7783;SDS011;19359;51.402;6.778;2023-09-19T10:06:04;753.63;;;432.02;;
7783;SDS011;19359;51.402;6.778;2023-09-19T10:09:00;754.53;;;431.83;;
7783;SDS011;19359;51.402;6.778;2023-09-19T10:11:36;753.15;;;426.05;;
7783;SDS011;19359;51.402;6.778;2023-09-19T10:14:09;761.00;;;433.98;;
7783;SDS011;19359;51.402;6.778;2023-09-19T10:16:40;763.13;;;445.05;;
7783;SDS011;19359;51.402;6.778;2023-09-19T10:19:11;752.50;;;421.80;;
7783;SDS011;19359;51.402;6.778;2023-09-19T10:21:47;755.92;;;430.30;;
7783;SDS011;19359;51.402;6.778;2023-09-19T10:24:16;757.53;;;427.20;;
7783;SDS011;19359;51.402;6.778;2023-09-19T10:26:45;758.08;;;432.55;;
7783;SDS011;19359;51.402;6.778;2023-09-19T10:29:17;755.88;;;437.20;;
7783;SDS011;19359;51.402;6.778;2023-09-19T10:31:44;756.00;;;432.10;;
7783;SDS011;19359;51.402;6.778;2023-09-19T10:34:15;758.45;;;445.65;;
7783;SDS011;19359;51.402;6.778;2023-09-19T10:36:44;758.08;;;442.90;;
7783;SDS011;19359;51.402;6.778;2023-09-19T10:39:13;763.47;;;458.08;;
7783;SDS011;19359;51.402;6.778;2023-09-19T10:41:45;760.20;;;456.23;;
7783;SDS011;19359;51.402;6.778;2023-09-19T10:44:19;762.83;;;461.10;;
7783;SDS011;19359;51.402;6.778;2023-09-19T10:46:50;756.63;;;437.55;;
7783;SDS011;19359;51.402;6.778;2023-09-19T10:49:18;759.42;;;444.30;;
7783;SDS011;19359;51.402;6.778;2023-09-19T10:51:45;762.35;;;448.27;;
7783;SDS011;19359;51.402;6.778;2023-09-19T10:54:15;764.60;;;463.92;;
7783;SDS011;19359;51.402;6.778;2023-09-19T10:56:46;766.28;;;465.75;;
7783;SDS011;19359;51.402;6.778;2023-09-19T10:59:17;769.80;;;467.80;;
7783;SDS011;19359;51.402;6.778;2023-09-19T11:01:47;770.40;;;486.65;;
7783;SDS011;19359;51.402;6.778;2023-09-19T11:04:28;768.83;;;481.85;;
7783;SDS011;19359;51.402;6.778;2023-09-19T11:07:03;769.33;;;479.00;;
7783;SDS011;19359;51.402;6.778;2023-09-19T11:09:43;779.55;;;499.00;;
7783;SDS011;19359;51.402;6.778;2023-09-19T11:12:11;769.50;;;494.73;;
7783;SDS011;19359;51.402;6.778;2023-09-19T11:14:39;765.25;;;476.98;;
7783;SDS011;19359;51.402;6.778;2023-09-19T11:17:31;768.70;;;489.33;;
7783;SDS011;19359;51.402;6.778;2023-09-19T11:25:47;768.88;;;487.90;;
7783;SDS011;19359;51.402;6.778;2023-09-19T11:28:29;768.28;;;487.65;;
7783;SDS011;19359;51.402;6.778;2023-09-19T11:30:57;776.75;;;509.30;;
7783;SDS011;19359;51.402;6.778;2023-09-19T11:33:26;768.95;;;483.02;;
7783;SDS011;19359;51.402;6.778;2023-09-19T11:35:58;775.55;;;516.05;;
7783;SDS011;19359;51.402;6.778;2023-09-19T11:41:38;770.83;;;501.60;;
7783;SDS011;19359;51.402;6.778;2023-09-19T11:47:00;774.45;;;504.63;;
7783;SDS011;19359;51.402;6.778;2023-09-19T11:49:30;767.42;;;488.08;;
7783;SDS011;19359;51.402;6.778;2023-09-19T11:51:59;775.92;;;507.75;;
7783;SDS011;19359;51.402;6.778;2023-09-19T11:54:31;774.53;;;506.17;;
7783;SDS011;19359;51.402;6.778;2023-09-19T11:56:58;773.50;;;508.08;;
7783;SDS011;19359;51.402;6.778;2023-09-19T11:59:27;775.63;;;521.97;;
7783;SDS011;19359;51.402;6.778;2023-09-19T12:01:55;772.67;;;509.90;;
7783;SDS011;19359;51.402;6.778;2023-09-19T12:04:34;781.30;;;534.47;;
7783;SDS011;19359;51.402;6.778;2023-09-19T12:07:03;780.78;;;527.47;;
7783;SDS011;19359;51.402;6.778;2023-09-19T12:09:35;777.28;;;522.17;;
7783;SDS011;19359;51.402;6.778;2023-09-19T12:12:05;774.53;;;518.35;;
7783;SDS011;19359;51.402;6.778;2023-09-19T12:14:32;773.47;;;513.60;;
7783;SDS011;19359;51.402;6.778;2023-09-19T12:17:00;782.97;;;544.38;;
7783;SDS011;19359;51.402;6.778;2023-09-19T12:19:28;777.67;;;526.42;;
7783;SDS011;19359;51.402;6.778;2023-09-19T12:21:57;782.22;;;537.90;;
7783;SDS011;19359;51.402;6.778;2023-09-19T12:24:29;782.38;;;542.40;;
7783;SDS011;19359;51.402;6.778;2023-09-19T12:27:00;785.80;;;550.40;;
7783;SDS011;19359;51.402;6.778;2023-09-19T12:29:29;783.67;;;550.95;;
7783;SDS011;19359;51.402;6.778;2023-09-19T12:31:56;790.25;;;564.95;;
7783;SDS011;19359;51.402;6.778;2023-09-19T12:34:25;784.53;;;556.58;;
7783;SDS011;19359;51.402;6.778;2023-09-19T12:37:07;788.05;;;570.33;;
7783;SDS011;19359;51.402;6.778;2023-09-19T12:39:40;787.83;;;563.78;;
7783;SDS011;19359;51.402;6.778;2023-09-19T12:42:09;789.30;;;573.47;;
7783;SDS011;19359;51.402;6.778;2023-09-19T12:44:40;792.67;;;590.67;;
7783;SDS011;19359;51.402;6.778;2023-09-19T12:47:11;796.45;;;611.58;;
7783;SDS011;19359;51.402;6.778;2023-09-19T12:52:41;805.75;;;648.55;;
7783;SDS011;19359;51.402;6.778;2023-09-19T12:55:25;814.08;;;671.47;;
7783;SDS011;19359;51.402;6.778;2023-09-19T12:58:02;815.33;;;687.05;;
7783;SDS011;19359;51.402;6.778;2023-09-19T13:00:34;816.50;;;694.55;;
7783;SDS011;19359;51.402;6.778;2023-09-19T13:03:11;819.58;;;706.15;;
7783;SDS011;19359;51.402;6.778;2023-09-19T13:05:47;815.30;;;700.33;;
7783;SDS011;19359;51.402;6.778;2023-09-19T13:08:20;817.40;;;703.80;;
7783;SDS011;19359;51.402;6.778;2023-09-19T13:11:05;812.65;;;680.63;;
7783;SDS011;19359;51.402;6.778;2023-09-19T13:13:35;804.45;;;656.63;;
7783;SDS011;19359;51.402;6.778;2023-09-19T13:16:03;806.90;;;652.08;;
7783;SDS011;19359;51.402;6.778;2023-09-19T13:18:33;801.60;;;629.85;;
7783;SDS011;19359;51.402;6.778;2023-09-19T13:21:12;799.85;;;627.67;;
7783;SDS011;19359;51.402;6.778;2023-09-19T13:23:49;794.33;;;603.38;;
7783;SDS011;19359;51.402;6.778;2023-09-19T13:26:17;788.42;;;582.83;;
7783;SDS011;19359;51.402;6.778;2023-09-19T13:28:44;792.53;;;591.15;;
7783;SDS011;19359;51.402;6.778;2023-09-19T13:31:13;790.42;;;587.42;;
7783;SDS011;19359;51.402;6.778;2023-09-19T13:33:42;791.17;;;576.97;;
7783;SDS011;19359;51.402;6.778;2023-09-19T13:36:09;791.15;;;574.42;;
7783;SDS011;19359;51.402;6.778;2023-09-19T13:38:37;789.55;;;579.03;;
7783;SDS011;19359;51.402;6.778;2023-09-19T13:41:05;784.78;;;564.22;;
7783;SDS011;19359;51.402;6.778;2023-09-19T13:43:32;785.50;;;561.95;;
7783;SDS011;19359;51.402;6.778;2023-09-19T13:45:58;780.92;;;542.55;;
7783;SDS011;19359;51.402;6.778;2023-09-19T13:48:26;781.05;;;549.60;;
7783;SDS011;19359;51.402;6.778;2023-09-19T13:50:55;778.25;;;524.78;;
7783;SDS011;19359;51.402;6.778;2023-09-19T13:53:21;776.03;;;523.50;;
7783;SDS011;19359;51.402;6.778;2023-09-19T13:55:48;775.13;;;518.92;;
7783;SDS011;19359;51.402;6.778;2023-09-19T13:58:17;775.45;;;528.67;;
7783;SDS011;19359;51.402;6.778;2023-09-19T14:00:44;770.72;;;507.23;;
7783;SDS011;19359;51.402;6.778;2023-09-19T14:03:10;774.67;;;517.10;;
7783;SDS011;19359;51.402;6.778;2023-09-19T14:05:37;769.22;;;500.02;;
7783;SDS011;19359;51.402;6.778;2023-09-19T14:08:04;773.20;;;509.73;;
7783;SDS011;19359;51.402;6.778;2023-09-19T14:10:31;771.88;;;502.90;;
7783;SDS011;19359;51.402;6.778;2023-09-19T14:12:59;772.65;;;515.50;;
7783;SDS011;19359;51.402;6.778;2023-09-19T14:15:28;772.10;;;502.42;;
7783;SDS011;19359;51.402;6.778;2023-09-19T14:17:56;768.05;;;498.98;;
7783;SDS011;19359;51.402;6.778;2023-09-19T14:20:24;779.25;;;510.52;;
7783;SDS011;19359;51.402;6.778;2023-09-19T14:22:52;767.65;;;499.70;;
7783;SDS011;19359;51.402;6.778;2023-09-19T14:25:19;771.78;;;504.83;;
7783;SDS011;19359;51.402;6.778;2023-09-19T14:27:47;772.47;;;507.83;;
7783;SDS011;19359;51.402;6.778;2023-09-19T14:30:14;771.67;;;512.08;;
7783;SDS011;19359;51.402;6.778;2023-09-19T14:32:42;770.63;;;501.58;;
7783;SDS011;19359;51.402;6.778;2023-09-19T14:35:09;771.47;;;512.30;;
7783;SDS011;19359;51.402;6.778;2023-09-19T14:37:39;769.05;;;499.02;;
7783;SDS011;19359;51.402;6.778;2023-09-19T14:40:07;768.88;;;494.17;;
7783;SDS011;19359;51.402;6.778;2023-09-19T14:42:35;768.70;;;503.58;;